Time;durP1;ratioP1;P1;durP2;ratioP2;P2;SDS_P1;SDS_P2;PMS_P1;PMS_P2;Temp;Humidity;BMP_temperature;BMP_pressure;BME280_temperature;BME280_humidity;BME280_pressure;Samples;Min_cycle;Max_cycle;Signal;HPM_P1;HPM_P2
2024/01/31 00:00:15;;;;;;;26.10;16.85;;;;;;;5.45;100.00;103217.66;5054603;28;20029;-71
2024/01/31 00:02:41;;;;;;;26.30;16.30;;;;;;;5.45;100.00;103217.66;5042606;28;20077;-71
2024/01/31 00:05:06;;;;;;;25.40;14.77;;;;;;;5.45;100.00;103215.03;5044350;28;20112;-71
2024/01/31 00:07:32;;;;;;;27.63;15.05;;;;;;;5.44;100.00;103215.03;5050387;28;20025;-72
2024/01/31 00:09:57;;;;;;;21.65;13.95;;;;;;;5.43;100.00;103216.78;5043352;28;20036;-71
2024/01/31 00:12:22;;;;;;;19.50;13.45;;;;;;;5.43;100.00;103211.50;5043553;28;20477;-71
2024/01/31 00:14:48;;;;;;;21.90;13.20;;;;;;;5.40;100.00;103216.75;5046128;28;20078;-71
2024/01/31 00:17:13;;;;;;;20.20;13.57;;;;;;;5.34;100.00;103206.13;5044008;28;20107;-71
2024/01/31 00:19:38;;;;;;;23.25;13.65;;;;;;;5.41;100.00;103215.00;5045404;28;20083;-71
2024/01/31 00:22:04;;;;;;;18.92;12.02;;;;;;;5.39;100.00;103211.44;5044697;28;20025;-71
2024/01/31 00:24:29;;;;;;;19.30;12.30;;;;;;;5.30;100.00;103212.25;5054719;28;20053;-71
2024/01/31 00:26:54;;;;;;;22.88;12.70;;;;;;;5.38;100.00;103228.16;5043552;28;20045;-71
2024/01/31 00:29:20;;;;;;;20.15;12.00;;;;;;;5.39;100.00;103238.75;5047534;28;20120;-71
2024/01/31 00:31:45;;;;;;;23.30;12.18;;;;;;;5.39;100.00;103238.75;5044159;28;20024;-71
2024/01/31 00:34:11;;;;;;;18.15;11.65;;;;;;;5.38;100.00;103236.97;5042912;28;20039;-71
2024/01/31 00:36:36;;;;;;;22.90;11.85;;;;;;;5.39;100.00;103237.84;5044571;28;20071;-71
2024/01/31 00:39:01;;;;;;;22.65;12.88;;;;;;;5.38;100.00;103236.97;5048655;28;20496;-72
2024/01/31 00:41:27;;;;;;;22.67;11.45;;;;;;;5.39;100.00;103244.03;5048446;28;20112;-71
2024/01/31 00:43:52;;;;;;;20.33;11.85;;;;;;;5.39;100.00;103248.41;5043355;28;20249;-71
2024/01/31 00:46:20;;;;;;;23.08;12.45;;;;;;;5.39;100.00;103256.31;5045289;28;20032;-71
2024/01/31 00:48:46;;;;;;;21.80;12.73;;;;;;;5.39;100.00;103246.69;5043565;28;20037;-70
2024/01/31 00:51:12;;;;;;;23.55;12.98;;;;;;;5.39;100.00;103251.97;5043470;28;20071;-71
2024/01/31 00:53:40;;;;;;;21.05;12.32;;;;;;;5.39;100.00;103251.03;5043778;28;21090;-71
2024/01/31 00:56:08;;;;;;;25.30;11.48;;;;;;;5.35;100.00;103247.53;5032810;28;20103;-72
2024/01/31 00:58:33;;;;;;;19.05;11.77;;;;;;;5.32;100.00;103252.75;5043912;28;20082;-71
2024/01/31 01:00:59;;;;;;;19.92;10.98;;;;;;;5.36;100.00;103259.84;5042909;28;20154;-71
2024/01/31 01:03:24;;;;;;;20.73;11.27;;;;;;;5.33;100.00;103258.94;5044169;28;20106;-70
2024/01/31 01:05:49;;;;;;;18.58;9.90;;;;;;;5.32;100.00;103257.16;5044821;28;20090;-69
2024/01/31 01:08:15;;;;;;;18.95;10.57;;;;;;;5.30;100.00;103259.78;5045121;28;20029;-70
2024/01/31 01:10:40;;;;;;;16.85;9.65;;;;;;;5.25;100.00;103265.00;5022743;28;20044;-70
2024/01/31 01:13:05;;;;;;;16.77;10.18;;;;;;;5.28;100.00;103264.16;5043772;28;20464;-71
2024/01/31 01:15:31;;;;;;;17.27;10.30;;;;;;;5.25;100.00;103267.66;5051987;28;20029;-70
2024/01/31 01:17:56;;;;;;;16.83;8.77;;;;;;;5.24;100.00;103270.28;5042273;28;20041;-70
2024/01/31 01:20:22;;;;;;;14.38;8.52;;;;;;;5.22;100.00;103270.28;5041518;28;20128;-71
2024/01/31 01:22:48;;;;;;;15.25;8.35;;;;;;;5.18;100.00;103268.47;5043842;28;20056;-71
2024/01/31 01:25:13;;;;;;;14.73;7.65;;;;;;;5.22;100.00;103277.28;5038259;28;20122;-71
2024/01/31 01:27:39;;;;;;;16.08;7.93;;;;;;;5.18;100.00;103268.47;5042891;28;20092;-71
2024/01/31 01:30:05;;;;;;;13.95;8.05;;;;;;;5.20;100.00;103273.78;5026195;28;20035;-71
2024/01/31 01:32:30;;;;;;;14.43;8.20;;;;;;;5.12;100.00;103262.25;5042364;28;20024;-71
2024/01/31 01:34:55;;;;;;;14.25;7.93;;;;;;;5.18;100.00;103270.22;5043354;28;20123;-70
2024/01/31 01:37:21;;;;;;;17.17;7.55;;;;;;;5.15;100.00;103276.38;5050381;28;20521;-69
2024/01/31 01:39:47;;;;;;;13.88;8.30;;;;;;;5.10;100.00;103264.88;5056889;28;20139;-70
2024/01/31 01:42:12;;;;;;;14.02;7.32;;;;;;;5.12;100.00;103270.16;5034642;28;20087;-70
2024/01/31 01:44:44;;;;;;;17.15;7.15;;;;;;;5.12;100.00;103270.16;5042947;28;20449;-71
2024/01/31 01:47:11;;;;;;;15.90;6.88;;;;;;;5.12;100.00;103275.44;5038484;28;20052;-70
2024/01/31 01:49:37;;;;;;;12.02;5.97;;;;;;;5.10;100.00;103279.78;5041952;28;20147;-70
2024/01/31 01:52:03;;;;;;;14.18;5.78;;;;;;;5.10;100.00;103272.78;5045734;28;20337;-70
2024/01/31 01:54:30;;;;;;;12.90;6.38;;;;;;;5.09;100.00;103275.41;5053400;28;20117;-70
2024/01/31 01:56:56;;;;;;;11.43;5.72;;;;;;;5.07;100.00;103277.16;5047563;28;20029;-70
2024/01/31 01:59:22;;;;;;;10.60;5.20;;;;;;;5.08;100.00;103274.50;5044486;28;20021;-70
2024/01/31 02:01:48;;;;;;;11.88;5.22;;;;;;;5.05;100.00;103270.94;5041978;28;20078;-71
2024/01/31 02:04:14;;;;;;;10.90;4.90;;;;;;;5.07;100.00;103263.94;5041562;28;20446;-70
2024/01/31 02:06:40;;;;;;;11.13;5.38;;;;;;;5.04;100.00;103266.56;5041340;28;20287;-70
2024/01/31 02:09:05;;;;;;;12.13;5.20;;;;;;;5.08;100.00;103265.72;5042311;28;20021;-70
2024/01/31 02:11:31;;;;;;;11.20;5.65;;;;;;;5.05;100.00;103268.31;5042396;28;20108;-70
2024/01/31 02:13:59;;;;;;;10.00;5.45;;;;;;;5.04;100.00;103267.44;5042457;28;20025;-70
2024/01/31 02:16:24;;;;;;;12.48;5.45;;;;;;;5.05;100.00;103263.03;5032496;28;20372;-70
2024/01/31 02:18:50;;;;;;;11.85;5.35;;;;;;;5.02;100.00;103263.00;5049489;28;20017;-70
2024/01/31 02:21:16;;;;;;;9.85;5.20;;;;;;;5.02;100.00;103263.00;5045937;28;20029;-70
2024/01/31 02:23:41;;;;;;;11.45;5.10;;;;;;;5.05;100.00;103263.91;5049275;28;20024;-70
2024/01/31 02:26:06;;;;;;;10.43;5.68;;;;;;;5.05;100.00;103269.19;5045024;28;20580;-71
2024/01/31 02:28:32;;;;;;;10.18;5.35;;;;;;;5.05;100.00;103260.41;5042330;28;20025;-70
2024/01/31 02:30:57;;;;;;;7.93;4.95;;;;;;;4.98;100.00;103252.44;5042462;28;20033;-71
2024/01/31 02:33:22;;;;;;;13.05;5.20;;;;;;;5.03;100.00;103260.38;5043520;28;20045;-70
2024/01/31 02:35:48;;;;;;;10.93;4.82;;;;;;;4.95;100.00;103260.31;5040801;28;20033;-71
2024/01/31 02:38:13;;;;;;;11.57;5.10;;;;;;;4.98;100.00;103262.09;5042610;28;20345;-70
2024/01/31 02:40:39;;;;;;;11.77;4.22;;;;;;;5.00;100.00;103260.34;5041273;28;20029;-71
2024/01/31 02:43:04;;;;;;;8.85;4.30;;;;;;;4.99;100.00;103264.75;5044303;28;20111;-70
2024/01/31 02:45:29;;;;;;;9.77;4.13;;;;;;;4.97;100.00;103258.59;5037413;28;20022;-70
2024/01/31 02:47:55;;;;;;;9.73;4.25;;;;;;;4.97;100.00;103263.84;5042081;28;20261;-71
2024/01/31 02:50:20;;;;;;;10.90;4.22;;;;;;;4.95;100.00;103256.78;5044760;28;20996;-71
2024/01/31 02:52:48;;;;;;;9.32;4.10;;;;;;;4.95;100.00;103265.56;5046561;28;20032;-70
2024/01/31 02:55:13;;;;;;;8.68;3.85;;;;;;;4.93;100.00;103263.78;5046691;28;20533;-71
2024/01/31 02:57:39;;;;;;;10.95;4.10;;;;;;;4.92;100.00;103259.38;5043999;28;20036;-69
2024/01/31 03:00:11;;;;;;;10.77;3.63;;;;;;;4.96;100.00;103254.16;5049648;28;20137;-70
2024/01/31 03:02:37;;;;;;;12.87;4.80;;;;;;;4.97;100.00;103252.38;5038655;28;20481;-71
2024/01/31 03:05:03;;;;;;;14.18;4.40;;;;;;;4.95;100.00;103252.38;5047729;28;20284;-70
2024/01/31 03:07:28;;;;;;;10.27;4.47;;;;;;;4.92;100.00;103241.78;5047525;28;20036;-71
2024/01/31 03:09:54;;;;;;;10.80;4.05;;;;;;;4.96;100.00;103245.34;5050125;28;20110;-71
2024/01/31 03:12:20;;;;;;;11.90;3.92;;;;;;;4.96;100.00;103248.00;5056209;28;20093;-71
2024/01/31 03:14:45;;;;;;;8.80;3.45;;;;;;;4.92;100.00;103236.50;5048059;28;20104;-71
2024/01/31 03:17:10;;;;;;;9.38;3.40;;;;;;;4.95;100.00;103241.81;5055540;28;20060;-71
2024/01/31 03:19:37;;;;;;;9.23;4.22;;;;;;;4.94;100.00;103237.44;5042167;28;20033;-71
2024/01/31 03:22:05;;;;;;;9.88;4.03;;;;;;;4.95;100.00;103240.94;5044817;28;20399;-71
2024/01/31 03:24:30;;;;;;;10.82;4.57;;;;;;;4.93;100.00;103238.31;5045106;28;20090;-70
2024/01/31 03:26:56;;;;;;;11.57;4.25;;;;;;;4.92;100.00;103235.63;5045528;28;20473;-70
2024/01/31 03:29:21;;;;;;;9.90;4.03;;;;;;;4.96;100.00;103246.22;5045737;28;20103;-71
2024/01/31 03:31:47;;;;;;;10.18;4.63;;;;;;;4.93;100.00;103240.03;5056454;28;20029;-71
2024/01/31 03:34:13;;;;;;;9.50;4.43;;;;;;;4.87;100.00;103213.59;5027471;28;20025;-70
2024/01/31 03:36:39;;;;;;;10.05;4.57;;;;;;;4.92;100.00;103232.97;5037250;28;20480;-70
2024/01/31 03:39:04;;;;;;;7.55;4.00;;;;;;;4.92;100.00;103230.34;5046704;28;20298;-71
2024/01/31 03:41:29;;;;;;;8.77;4.28;;;;;;;4.89;100.00;103222.38;5048235;28;20119;-72
2024/01/31 03:43:56;;;;;;;12.48;4.55;;;;;;;4.91;100.00;103226.81;5045031;28;20061;-71
2024/01/31 03:46:21;;;;;;;10.38;4.30;;;;;;;4.91;100.00;103226.81;5019760;28;20270;-71
2024/01/31 03:48:48;;;;;;;8.90;4.57;;;;;;;4.90;100.00;103224.19;5036403;28;20482;-72
2024/01/31 03:51:20;;;;;;;10.02;5.10;;;;;;;4.88;100.00;103224.16;5050055;28;20570;-71
2024/01/31 03:53:47;;;;;;;12.37;4.80;;;;;;;4.90;100.00;103225.06;5048518;28;20033;-71
2024/01/31 03:56:13;;;;;;;10.13;4.60;;;;;;;4.88;100.00;103216.22;5038181;28;20029;-71
2024/01/31 03:58:39;;;;;;;9.75;4.50;;;;;;;4.88;100.00;103215.34;5052397;28;20052;-71
2024/01/31 04:01:05;;;;;;;11.90;4.57;;;;;;;4.85;100.00;103208.31;5043156;28;20037;-71
2024/01/31 04:03:30;;;;;;;11.18;4.88;;;;;;;4.88;100.00;103218.00;5045789;28;20039;-71
2024/01/31 04:05:55;;;;;;;11.40;4.63;;;;;;;4.87;100.00;103209.19;5041143;28;20039;-72
2024/01/31 04:08:21;;;;;;;10.98;4.80;;;;;;;4.85;100.00;103213.59;5040681;28;20036;-71
2024/01/31 04:10:46;;;;;;;11.82;4.68;;;;;;;4.86;100.00;103214.47;5043439;28;20043;-71
2024/01/31 04:13:12;;;;;;;13.48;4.93;;;;;;;4.87;100.00;103214.47;5043533;28;20154;-71
2024/01/31 04:15:37;;;;;;;6.60;4.10;;;;;;;4.85;100.00;103210.94;5043095;28;20130;-71
2024/01/31 04:18:03;;;;;;;8.93;4.43;;;;;;;4.81;100.00;103206.50;5045913;28;20383;-71
2024/01/31 04:20:28;;;;;;;8.90;5.00;;;;;;;4.81;100.00;103202.94;5039488;28;20672;-71
2024/01/31 04:22:54;;;;;;;8.43;4.70;;;;;;;4.84;100.00;103211.78;5024472;28;20045;-71
2024/01/31 04:25:19;;;;;;;12.65;4.93;;;;;;;4.84;100.00;103208.28;5054931;28;20075;-70
2024/01/31 04:27:44;;;;;;;8.60;4.50;;;;;;;4.82;100.00;103210.03;5043699;28;20029;-70
2024/01/31 04:30:10;;;;;;;13.23;4.95;;;;;;;4.81;100.00;103209.13;5043406;28;20172;-71
2024/01/31 04:32:36;;;;;;;12.02;4.70;;;;;;;4.84;100.00;103216.19;5043673;28;20037;-71
2024/01/31 04:35:01;;;;;;;12.30;5.30;;;;;;;4.84;100.00;103224.97;5043249;28;20534;-70
2024/01/31 04:37:26;;;;;;;12.68;6.15;;;;;;;4.85;100.00;103216.22;5043931;28;20036;-71
2024/01/31 04:39:52;;;;;;;16.67;7.32;;;;;;;4.83;100.00;103215.31;5043837;28;20031;-71
2024/01/31 04:42:18;;;;;;;13.20;7.15;;;;;;;4.84;100.00;103214.44;5044190;28;20025;-72
2024/01/31 04:44:45;;;;;;;14.27;8.00;;;;;;;4.82;100.00;103212.66;5029319;28;20070;-71
2024/01/31 04:47:11;;;;;;;16.17;8.48;;;;;;;4.82;100.00;103213.53;5043989;28;20057;-71
2024/01/31 04:49:37;;;;;;;21.15;10.23;;;;;;;4.83;100.00;103212.66;5040278;28;20927;-71
2024/01/31 04:52:02;;;;;;;20.13;9.50;;;;;;;4.81;100.00;103206.50;5042743;28;20242;-71
2024/01/31 04:54:28;;;;;;;16.65;8.95;;;;;;;4.83;100.00;103204.75;5041769;28;20029;-71
2024/01/31 04:56:53;;;;;;;22.88;9.68;;;;;;;4.76;100.00;103202.91;5043891;28;20032;-71
2024/01/31 04:59:19;;;;;;;19.05;10.25;;;;;;;4.84;100.00;103209.16;5043787;28;20021;-71
2024/01/31 05:01:44;;;;;;;17.10;9.45;;;;;;;4.84;100.00;103213.53;5026091;28;20094;-71
2024/01/31 05:04:10;;;;;;;21.52;10.07;;;;;;;4.78;100.00;103200.31;5043679;28;20024;-70
2024/01/31 05:06:35;;;;;;;23.60;10.00;;;;;;;4.82;100.00;103203.00;5043069;28;20040;-70
2024/01/31 05:09:01;;;;;;;25.98;10.65;;;;;;;4.83;100.00;103204.75;5042124;28;20507;-71
2024/01/31 05:11:26;;;;;;;19.48;10.10;;;;;;;4.83;100.00;103201.22;5040713;28;20075;-70
2024/01/31 05:13:51;;;;;;;24.27;11.05;;;;;;;4.83;100.00;103198.59;5043590;28;20051;-70
2024/01/31 05:16:17;;;;;;;20.38;11.40;;;;;;;4.81;100.00;103201.22;5044215;28;20525;-70
2024/01/31 05:18:42;;;;;;;19.65;11.18;;;;;;;4.81;100.00;103211.78;5042979;28;20190;-70
2024/01/31 05:21:11;;;;;;;22.35;11.57;;;;;;;4.82;100.00;103208.25;5041974;28;20467;-71
2024/01/31 05:23:37;;;;;;;26.63;13.40;;;;;;;4.78;100.00;103197.66;5039624;28;20031;-71
2024/01/31 05:26:09;;;;;;;30.38;15.52;;;;;;;4.82;100.00;103207.38;5043410;28;20041;-70
2024/01/31 05:28:36;;;;;;;27.70;14.70;;;;;;;4.77;100.00;103204.69;5043044;28;20017;-71
2024/01/31 05:31:01;;;;;;;29.55;15.05;;;;;;;4.82;100.00;103213.53;5043792;28;20029;-71
2024/01/31 05:33:26;;;;;;;27.35;15.68;;;;;;;4.83;100.00;103204.75;5024786;28;20044;-70
2024/01/31 05:35:52;;;;;;;30.08;15.25;;;;;;;4.80;100.00;103191.50;5043617;28;20017;-70
2024/01/31 05:38:20;;;;;;;28.25;16.30;;;;;;;4.81;100.00;103195.03;5042097;28;20475;-71
2024/01/31 05:40:45;;;;;;;34.17;17.88;;;;;;;4.80;100.00;103204.69;5041276;28;20029;-71
2024/01/31 05:43:11;;;;;;;35.08;17.55;;;;;;;4.81;100.00;103206.50;5042297;28;20031;-71
2024/01/31 05:45:37;;;;;;;34.03;18.75;;;;;;;4.80;100.00;103198.53;5039292;28;20031;-71
2024/01/31 05:48:03;;;;;;;32.08;17.98;;;;;;;4.82;100.00;103202.09;5029092;28;20056;-71
2024/01/31 05:50:28;;;;;;;37.75;19.85;;;;;;;4.77;100.00;103194.13;5043178;28;20332;-71
2024/01/31 05:52:54;;;;;;;32.33;19.35;;;;;;;4.82;100.00;103202.09;5046987;28;20039;-71
2024/01/31 05:55:19;;;;;;;34.72;19.02;;;;;;;4.81;100.00;103197.66;5042811;28;20138;-71
2024/01/31 05:57:48;;;;;;;28.30;18.95;;;;;;;4.81;100.00;103208.22;5043280;28;20040;-71
2024/01/31 06:00:15;;;;;;;38.33;20.38;;;;;;;4.81;100.00;103202.94;5042311;28;20052;-70
2024/01/31 06:02:40;;;;;;;36.40;19.50;;;;;;;4.80;100.00;103202.06;5041630;28;20032;-71
2024/01/31 06:05:06;;;;;;;39.28;21.38;;;;;;;4.80;100.00;103204.69;5044682;28;20037;-71
2024/01/31 06:07:31;;;;;;;39.33;20.80;;;;;;;4.80;100.00;103196.78;5044791;28;20040;-71
2024/01/31 06:09:56;;;;;;;33.80;20.02;;;;;;;4.80;100.00;103194.16;5043947;28;20110;-71
2024/01/31 06:12:22;;;;;;;40.72;22.17;;;;;;;4.81;100.00;103202.94;5045993;28;20110;-71
2024/01/31 06:14:47;;;;;;;41.85;22.27;;;;;;;4.80;100.00;103207.34;5044896;28;20027;-72
2024/01/31 06:17:14;;;;;;;38.42;21.95;;;;;;;4.73;100.00;103197.63;5042829;28;20029;-71
2024/01/31 06:19:40;;;;;;;38.03;20.85;;;;;;;4.77;100.00;103209.97;5039667;28;20029;-72
2024/01/31 06:22:07;;;;;;;39.92;21.73;;;;;;;4.75;100.00;103198.50;5043347;28;20039;-71
2024/01/31 06:24:32;;;;;;;38.30;21.85;;;;;;;4.78;100.00;103197.66;5045278;28;20483;-72
2024/01/31 06:26:57;;;;;;;39.42;20.65;;;;;;;4.76;100.00;103197.63;5046392;28;20039;-72
2024/01/31 06:29:23;;;;;;;44.67;23.98;;;;;;;4.74;100.00;103200.25;5059407;28;20024;-72
2024/01/31 06:31:48;;;;;;;37.47;22.60;;;;;;;4.74;100.00;103194.09;5054843;28;20028;-71
2024/01/31 06:34:14;;;;;;;43.35;23.35;;;;;;;4.75;100.00;103193.22;5049958;28;20035;-71
2024/01/31 06:36:40;;;;;;;45.95;22.20;;;;;;;4.71;100.00;103181.75;5053871;28;20267;-72
2024/01/31 06:39:05;;;;;;;40.97;23.02;;;;;;;4.68;100.00;103172.91;5043836;28;20071;-73
2024/01/31 06:41:33;;;;;;;39.13;22.20;;;;;;;4.74;100.00;103186.19;5045376;28;20032;-72
2024/01/31 06:43:58;;;;;;;43.20;21.85;;;;;;;4.73;100.00;103176.50;5045800;28;20430;-73
2024/01/31 06:46:24;;;;;;;39.38;23.55;;;;;;;4.70;100.00;103163.28;5046772;28;20029;-72
2024/01/31 06:48:49;;;;;;;43.17;24.17;;;;;;;4.74;100.00;103170.34;5047463;28;20107;-72
2024/01/31 06:51:14;;;;;;;40.13;23.20;;;;;;;4.72;100.00;103158.88;5056699;28;20500;-71
2024/01/31 06:53:40;;;;;;;43.88;24.23;;;;;;;4.73;100.00;103160.69;5051455;28;20040;-73
2024/01/31 06:56:06;;;;;;;45.17;24.67;;;;;;;4.71;100.00;103149.22;5046059;28;20033;-72
2024/01/31 06:58:32;;;;;;;41.70;23.95;;;;;;;4.72;100.00;103149.25;5040046;28;20035;-72
2024/01/31 07:01:01;;;;;;;42.58;24.77;;;;;;;4.71;100.00;103152.72;5046355;28;20029;-72
2024/01/31 07:03:26;;;;;;;40.92;23.25;;;;;;;4.70;100.00;103156.25;5043928;28;20036;-72
2024/01/31 07:05:52;;;;;;;40.40;23.23;;;;;;;4.71;100.00;103167.69;5047501;28;20131;-72
2024/01/31 07:08:17;;;;;;;42.45;22.95;;;;;;;4.65;100.00;103151.81;5051552;28;20112;-72
2024/01/31 07:10:42;;;;;;;40.78;23.27;;;;;;;4.69;100.00;103159.75;5047804;28;20119;-71
2024/01/31 07:13:08;;;;;;;40.72;22.67;;;;;;;4.64;100.00;103166.75;5052243;28;20487;-71
2024/01/31 07:15:33;;;;;;;40.90;23.42;;;;;;;4.68;100.00;103184.38;5046059;28;20106;-71
2024/01/31 07:17:58;;;;;;;39.03;23.38;;;;;;;4.66;100.00;103185.22;5041088;28;20045;-71
2024/01/31 07:20:24;;;;;;;43.67;22.38;;;;;;;4.62;100.00;103193.97;5046715;28;20035;-72
2024/01/31 07:22:49;;;;;;;38.95;21.27;;;;;;;4.68;100.00;103218.66;5055350;28;20120;-72
2024/01/31 07:25:15;;;;;;;37.95;21.58;;;;;;;4.67;100.00;103222.16;5044756;28;20203;-71
2024/01/31 07:27:41;;;;;;;37.53;20.58;;;;;;;4.70;100.00;103229.22;5057557;28;20021;-71
2024/01/31 07:30:10;;;;;;;37.78;22.23;;;;;;;4.69;100.00;103238.91;5046832;28;20154;-72
2024/01/31 07:32:39;;;;;;;38.88;21.42;;;;;;;4.68;100.00;103241.50;5045150;28;20028;-71
2024/01/31 07:35:07;;;;;;;38.70;21.08;;;;;;;4.69;100.00;103248.56;5047794;28;20044;-71
2024/01/31 07:37:35;;;;;;;38.20;21.25;;;;;;;4.69;100.00;103249.44;5047813;28;20092;-71
2024/01/31 07:40:00;;;;;;;37.45;21.50;;;;;;;4.69;100.00;103243.28;5041100;28;20017;-71
2024/01/31 07:42:26;;;;;;;37.88;20.70;;;;;;;4.70;100.00;103242.41;5041727;28;20032;-70
2024/01/31 07:44:52;;;;;;;33.95;21.65;;;;;;;4.74;100.00;103250.38;5029185;28;20048;-71
2024/01/31 07:47:17;;;;;;;33.53;21.08;;;;;;;4.75;100.00;103248.63;5044918;28;20021;-72
2024/01/31 07:49:43;;;;;;;38.35;21.20;;;;;;;4.72;100.00;103252.13;5049005;28;20363;-71
2024/01/31 07:52:10;;;;;;;35.58;20.52;;;;;;;4.76;100.00;103260.94;5045073;28;20020;-70
2024/01/31 07:54:35;;;;;;;34.45;20.80;;;;;;;4.76;100.00;103242.47;5050278;28;20029;-70
2024/01/31 07:57:01;;;;;;;36.17;21.55;;;;;;;4.78;100.00;103247.78;5044794;28;20120;-72
2024/01/31 07:59:26;;;;;;;40.03;19.85;;;;;;;4.79;100.00;103254.84;5049979;28;20126;-71
2024/01/31 08:01:51;;;;;;;35.40;19.60;;;;;;;4.79;100.00;103255.72;5029442;28;20059;-72
2024/01/31 08:04:20;;;;;;;34.13;19.65;;;;;;;4.78;100.00;103253.06;5044558;28;20118;-80
2024/01/31 08:06:45;;;;;;;32.30;19.30;;;;;;;4.81;100.00;103253.09;5045536;28;20495;-74
2024/01/31 08:09:11;;;;;;;33.63;21.17;;;;;;;4.82;100.00;103255.75;5045082;28;20052;-72
2024/01/31 08:11:43;;;;;;;36.35;20.48;;;;;;;4.85;100.00;103258.44;5044682;28;20029;-74
2024/01/31 08:14:09;;;;;;;36.85;19.95;;;;;;;4.85;100.00;103253.16;5045285;28;20395;-76
2024/01/31 08:16:35;;;;;;;34.55;20.13;;;;;;;4.88;100.00;103250.53;5027400;28;20117;-72
2024/01/31 08:19:00;;;;;;;33.58;20.13;;;;;;;4.90;100.00;103248.81;5043037;28;20509;-73
2024/01/31 08:21:26;;;;;;;38.92;21.92;;;;;;;4.91;100.00;103240.03;5041993;28;20036;-74
2024/01/31 08:23:51;;;;;;;38.15;23.48;;;;;;;4.94;100.00;103239.19;5040673;28;20035;-73
2024/01/31 08:26:18;;;;;;;43.35;23.80;;;;;;;4.96;100.00;103240.06;5044197;28;20244;-71
2024/01/31 08:28:44;;;;;;;39.08;23.10;;;;;;;4.96;100.00;103246.22;5043805;28;20122;-72
2024/01/31 08:31:09;;;;;;;42.25;24.50;;;;;;;4.95;100.00;103249.75;5040072;28;20052;-79
2024/01/31 08:33:35;;;;;;;47.33;24.48;;;;;;;4.96;100.00;103245.34;5047619;28;20545;-72
2024/01/31 08:36:00;;;;;;;40.33;24.48;;;;;;;4.97;100.00;103236.56;5063168;28;20166;-72
2024/01/31 08:38:25;;;;;;;42.70;24.52;;;;;;;4.99;100.00;103237.47;5045453;28;20024;-77
2024/01/31 08:40:51;;;;;;;45.38;25.58;;;;;;;5.00;100.00;103245.41;5045525;28;20051;-74
2024/01/31 08:43:16;;;;;;;47.80;26.25;;;;;;;5.03;100.00;103238.38;5044016;28;20414;-71
2024/01/31 08:45:42;;;;;;;42.10;25.80;;;;;;;5.05;100.00;103229.59;5026509;28;20160;-72
2024/01/31 08:48:07;;;;;;;41.72;24.85;;;;;;;5.08;100.00;103224.38;5039949;28;20037;-73
2024/01/31 08:50:33;;;;;;;45.63;25.75;;;;;;;5.10;100.00;103216.44;5048913;28;20508;-72
2024/01/31 08:52:58;;;;;;;50.33;27.25;;;;;;;5.14;100.00;103219.16;5022738;28;20025;-70
2024/01/31 08:55:24;;;;;;;46.95;26.00;;;;;;;5.15;100.00;103217.41;5044477;28;20033;-72
2024/01/31 08:57:49;;;;;;;47.42;26.73;;;;;;;5.18;100.00;103215.69;5043315;28;20115;-72
2024/01/31 09:00:15;;;;;;;54.83;29.55;;;;;;;5.24;100.00;103217.47;5043612;28;20021;-73
2024/01/31 09:02:40;;;;;;;48.88;28.40;;;;;;;5.24;100.00;103217.47;5055884;28;20047;-72
2024/01/31 09:05:07;;;;;;;48.25;28.08;;;;;;;5.28;100.00;103213.13;5043426;28;20025;-73
2024/01/31 09:07:32;;;;;;;46.10;27.60;;;;;;;5.31;100.00;103210.47;5038373;28;20036;-73
2024/01/31 09:09:57;;;;;;;44.75;26.83;;;;;;;5.31;100.00;103197.28;5043521;28;20471;-72
2024/01/31 09:12:23;;;;;;;48.10;28.05;;;;;;;5.39;100.00;103214.06;5055435;28;20031;-73
2024/01/31 09:14:49;;;;;;;48.67;28.48;;;;;;;5.42;100.00;103208.81;5047514;28;20403;-72
2024/01/31 09:17:14;;;;;;;52.72;30.80;;;;;;;5.41;100.00;103201.78;5025719;28;20032;-73
2024/01/31 09:19:40;;;;;;;48.58;28.98;;;;;;;5.44;100.00;103199.16;5025985;28;20433;-73
2024/01/31 09:22:06;;;;;;;48.30;28.73;;;;;;;5.45;100.00;103198.28;5043502;28;20024;-72
2024/01/31 09:24:32;;;;;;;48.90;31.35;;;;;;;5.45;100.00;103190.38;5036661;28;20346;-73
2024/01/31 09:26:58;;;;;;;48.80;29.73;;;;;;;5.42;100.00;103170.09;5049619;28;20041;-74
2024/01/31 09:29:25;;;;;;;48.15;29.60;;;;;;;5.47;100.00;103178.03;5043829;28;20036;-74
2024/01/31 09:31:50;;;;;;;54.17;30.77;;;;;;;5.45;100.00;103162.19;5042261;28;20020;-72
2024/01/31 09:34:16;;;;;;;47.53;29.75;;;;;;;5.57;100.00;103166.69;5043678;28;20399;-72
2024/01/31 09:36:46;;;;;;;51.50;30.35;;;;;;;5.62;100.00;103156.16;5042762;28;20391;-72
2024/01/31 09:39:12;;;;;;;74.80;32.78;;;;;;;5.68;100.00;103153.53;5041980;28;20063;-72
2024/01/31 09:41:37;;;;;;;57.78;32.28;;;;;;;5.75;100.00;103153.59;5042820;28;20606;-72
2024/01/31 09:44:03;;;;;;;96.22;35.03;;;;;;;5.85;100.00;103151.91;5038337;28;20506;-72
2024/01/31 09:46:30;;;;;;;69.20;34.08;;;;;;;5.83;100.00;103152.75;5042704;28;20476;-72
2024/01/31 09:48:55;;;;;;;48.97;31.02;;;;;;;5.88;100.00;103164.22;5043317;28;20076;-71
2024/01/31 09:51:22;;;;;;;46.13;29.08;;;;;;;5.85;100.00;103149.25;5042969;28;20527;-72
2024/01/31 09:53:58;;;;;;;49.50;28.63;;;;;;;5.83;100.00;103151.00;5024653;28;20121;-72
2024/01/31 09:56:27;;;;;;;45.38;29.10;;;;;;;5.87;100.00;103142.22;5045728;28;20090;-71
2024/01/31 09:58:54;;;;;;;43.88;27.88;;;;;;;5.91;100.00;103137.81;5041563;28;20566;-69
2024/01/31 10:01:21;;;;;;;44.35;28.38;;;;;;;5.96;100.00;103139.63;5042710;28;20047;-72
2024/01/31 10:03:47;;;;;;;42.53;27.25;;;;;;;5.91;100.00;103111.41;5044377;28;20032;-72
2024/01/31 10:06:12;;;;;;;39.38;25.35;;;;;;;6.12;100.00;103126.50;5042745;28;20051;-72
2024/01/31 10:08:38;;;;;;;40.30;25.92;;;;;;;6.23;100.00;103128.31;5042094;28;20542;-72
2024/01/31 10:11:03;;;;;;;39.40;24.25;;;;;;;6.38;100.00;103134.53;5044777;28;20052;-74
2024/01/31 10:13:29;;;;;;;34.58;24.48;;;;;;;6.41;100.00;103145.13;5051965;28;20162;-74
2024/01/31 10:15:54;;;;;;;36.85;24.58;;;;;;;6.40;100.00;103141.59;5042111;28;20040;-74
2024/01/31 10:18:19;;;;;;;36.42;23.60;;;;;;;6.42;100.00;103153.06;5037758;28;20025;-74
2024/01/31 10:20:51;;;;;;;31.90;21.63;;;;;;;6.36;100.00;103145.13;5043011;28;20036;-74
2024/01/31 10:23:16;;;;;;;29.80;21.95;;;;;;;6.35;100.00;103150.38;5042736;28;20104;-73
2024/01/31 10:25:42;;;;;;;30.63;20.38;;;;;;;6.32;100.00;103150.38;5036591;28;20136;-74
2024/01/31 10:28:08;;;;;;;26.23;20.90;;;;;;;6.32;100.00;103151.28;5042473;28;20036;-73
2024/01/31 10:30:48;;;;;;;28.77;20.73;;;;;;;6.28;100.00;103149.47;5043483;28;20032;-72
2024/01/31 10:33:14;;;;;;;28.75;20.63;;;;;;;6.23;100.00;103151.25;5044687;28;20113;-70
2024/01/31 10:35:41;;;;;;;30.58;20.13;;;;;;;6.28;100.00;103157.41;5047165;28;20039;-71
2024/01/31 10:38:07;;;;;;;28.67;19.88;;;;;;;6.24;100.00;103158.28;5037253;28;20021;-72
2024/01/31 10:40:34;;;;;;;24.95;18.33;;;;;;;6.26;100.00;103159.16;5037601;28;20377;-73
2024/01/31 10:43:01;;;;;;;24.75;18.92;;;;;;;6.25;100.00;103157.41;5042988;28;20061;-74
2024/01/31 10:45:29;;;;;;;25.85;18.83;;;;;;;6.23;100.00;103161.81;5042738;28;20032;-72
2024/01/31 10:47:54;;;;;;;23.83;18.30;;;;;;;6.24;100.00;103161.81;5040695;28;20025;-73
2024/01/31 10:50:20;;;;;;;25.63;17.50;;;;;;;6.22;100.00;103158.25;5041484;28;20079;-71
2024/01/31 10:52:47;;;;;;;23.08;18.45;;;;;;;6.22;100.00;103154.72;5039140;28;20078;-72
2024/01/31 10:55:13;;;;;;;21.25;16.38;;;;;;;6.21;100.00;103163.56;5041092;28;20034;-71
2024/01/31 10:57:40;;;;;;;22.73;17.33;;;;;;;6.18;100.00;103152.94;5042651;28;20325;-71
2024/01/31 11:00:10;;;;;;;22.08;16.70;;;;;;;6.18;100.00;103156.47;5043222;28;20040;-70
2024/01/31 11:02:35;;;;;;;22.27;16.95;;;;;;;6.15;100.00;103151.19;5045562;28;20409;-71
2024/01/31 11:05:01;;;;;;;20.05;16.92;;;;;;;6.10;100.00;103144.09;5050378;28;20104;-71